createdAt,value
2024-02-28T00:02:11.232Z,61.56
2024-02-28T00:04:42.438Z,62.13
2024-02-28T00:07:11.246Z,62.62
2024-02-28T00:09:41.743Z,62.65
2024-02-28T00:12:11.324Z,62.34
2024-02-28T00:14:41.019Z,62.88
2024-02-28T00:17:10.161Z,62.07
2024-02-28T00:19:38.678Z,61.46
2024-02-28T00:22:07.443Z,62.02
2024-02-28T00:24:36.284Z,62.58
2024-02-28T00:27:09.456Z,62.32
2024-02-28T00:29:38.209Z,62.31
2024-02-28T00:32:07.377Z,62.68
2024-02-28T00:34:36.195Z,62.55
2024-02-28T00:37:07.783Z,62.48
2024-02-28T00:39:36.271Z,62.76
2024-02-28T00:42:05.363Z,62.41
2024-02-28T00:44:35.747Z,62.42
2024-02-28T00:47:08.501Z,61.62
2024-02-28T00:49:37.232Z,62.43
2024-02-28T00:52:08.978Z,62.12
2024-02-28T00:54:38.356Z,61.72
2024-02-28T00:57:08.067Z,62.59
2024-02-28T00:59:38.422Z,62.79
2024-02-28T01:02:07.810Z,63.45
2024-02-28T01:04:36.761Z,62.38
2024-02-28T01:07:08.437Z,63.35
2024-02-28T01:09:37.668Z,63.80
2024-02-28T01:12:06.962Z,63.49
2024-02-28T01:14:35.554Z,63.48
2024-02-28T01:17:08.110Z,63.67
2024-02-28T01:19:36.894Z,63.66
2024-02-28T01:22:05.540Z,63.39
2024-02-28T01:24:35.035Z,63.03
2024-02-28T01:27:07.042Z,63.41
2024-02-28T01:29:35.992Z,63.85
2024-02-28T01:32:06.169Z,63.51
2024-02-28T01:34:40.146Z,62.75
2024-02-28T01:37:16.243Z,63.05
2024-02-28T01:39:45.595Z,63.32
2024-02-28T01:42:16.204Z,62.80
2024-02-28T01:44:47.041Z,62.54
2024-02-28T01:47:21.381Z,62.59
2024-02-28T01:49:52.092Z,62.83
2024-02-28T01:52:21.483Z,63.68
2024-02-28T01:54:56.692Z,64.31
2024-02-28T01:57:25.577Z,65.55
2024-02-28T01:59:55.830Z,64.48
2024-02-28T02:02:31.730Z,63.85
2024-02-28T02:05:01.792Z,64.10
2024-02-28T02:07:33.754Z,64.17
2024-02-28T02:10:03.299Z,63.59
2024-02-28T02:12:36.022Z,63.77
2024-02-28T02:15:08.467Z,64.50
2024-02-28T02:17:38.367Z,63.19
2024-02-28T02:20:08.296Z,63.41
2024-02-28T02:22:39.713Z,63.25
2024-02-28T02:25:09.226Z,63.52
2024-02-28T02:27:40.160Z,63.02
2024-02-28T02:30:09.594Z,63.46
2024-02-28T02:32:38.364Z,63.23
2024-02-28T02:35:07.471Z,62.63
2024-02-28T02:37:36.254Z,63.18
2024-02-28T02:40:06.955Z,63.50
2024-02-28T02:42:35.763Z,63.28
2024-02-28T02:45:04.433Z,63.05
2024-02-28T02:47:33.014Z,63.94
2024-02-28T02:50:01.903Z,63.97
2024-02-28T02:52:30.707Z,63.40
2024-02-28T02:54:59.470Z,63.77
2024-02-28T02:57:31.820Z,63.86
2024-02-28T03:00:00.852Z,63.18
2024-02-28T03:02:31.005Z,63.13
2024-02-28T03:05:01.063Z,62.63
2024-02-28T03:07:33.264Z,62.87
2024-02-28T03:10:02.079Z,62.29
2024-02-28T03:12:32.826Z,62.72
2024-02-28T03:15:02.329Z,61.95
2024-02-28T03:17:38.951Z,61.69
2024-02-28T03:20:08.639Z,61.61
2024-02-28T03:22:37.367Z,61.46
2024-02-28T03:25:06.915Z,62.27
2024-02-28T03:27:37.355Z,63.41
2024-02-28T03:30:07.135Z,63.21
2024-02-28T03:32:35.656Z,63.34
2024-02-28T03:35:06.788Z,62.76
2024-02-28T03:37:36.132Z,62.40
2024-02-28T03:40:05.814Z,62.09
2024-02-28T03:42:34.733Z,61.88
2024-02-28T03:45:05.657Z,61.90
2024-02-28T03:47:34.172Z,61.76
2024-02-28T03:50:04.899Z,62.89
2024-02-28T03:52:34.116Z,61.76
2024-02-28T03:55:03.261Z,62.44
2024-02-28T03:57:32.450Z,61.80
2024-02-28T04:00:03.157Z,62.21
2024-02-28T04:02:42.003Z,61.96
2024-02-28T04:05:11.228Z,62.58
2024-02-28T04:07:39.910Z,62.24
2024-02-28T04:10:09.353Z,61.78
2024-02-28T04:12:38.279Z,62.05
2024-02-28T04:15:07.701Z,62.07
2024-02-28T04:17:36.432Z,62.02
2024-02-28T04:20:09.968Z,62.12
2024-02-28T04:22:39.040Z,62.59
2024-02-28T04:25:09.157Z,62.98
2024-02-28T04:27:39.412Z,61.47
2024-02-28T04:30:08.491Z,61.25
2024-02-28T04:32:37.519Z,61.21
2024-02-28T04:35:07.787Z,61.56
2024-02-28T04:37:37.638Z,61.54
2024-02-28T04:40:07.856Z,61.53
2024-02-28T04:42:37.257Z,61.37
2024-02-28T04:45:06.008Z,61.36
2024-02-28T04:47:40.221Z,61.14
2024-02-28T04:50:14.533Z,60.19
2024-02-28T04:52:43.167Z,60.85
2024-02-28T04:55:11.861Z,61.53
2024-02-28T04:57:41.635Z,61.35
2024-02-28T05:00:10.607Z,61.21
2024-02-28T05:02:39.095Z,61.43
2024-02-28T05:05:08.772Z,61.69
2024-02-28T05:07:38.721Z,60.88
2024-02-28T05:10:07.924Z,62.03
2024-02-28T05:12:37.062Z,61.47
2024-02-28T05:15:07.785Z,62.25
2024-02-28T05:17:36.430Z,61.90
2024-02-28T05:20:05.539Z,60.98
2024-02-28T05:22:34.304Z,61.85
2024-02-28T05:25:04.765Z,63.09
2024-02-28T05:27:33.809Z,62.49
2024-02-28T05:30:06.946Z,62.34
2024-02-28T05:32:36.314Z,62.28
2024-02-28T05:35:05.412Z,62.19
2024-02-28T05:37:36.000Z,61.48
2024-02-28T05:40:08.715Z,60.49
2024-02-28T05:42:37.427Z,61.16
2024-02-28T05:45:06.565Z,59.27
2024-02-28T05:47:35.216Z,59.94
2024-02-28T05:50:03.752Z,58.69
2024-02-28T05:52:32.664Z,58.40
2024-02-28T05:55:06.597Z,59.08
2024-02-28T05:57:35.494Z,59.82
2024-02-28T06:00:10.838Z,59.13
2024-02-28T06:02:40.382Z,59.66
2024-02-28T06:05:10.412Z,59.98
2024-02-28T06:07:39.297Z,59.83
2024-02-28T06:10:14.681Z,59.52
2024-02-28T06:12:43.862Z,61.36
2024-02-28T06:15:15.535Z,60.17
2024-02-28T06:17:44.919Z,61.65
2024-02-28T06:20:14.070Z,60.77
2024-02-28T06:22:42.788Z,59.74
2024-02-28T06:25:19.434Z,60.72
2024-02-28T06:27:49.502Z,59.58
2024-02-28T06:30:18.835Z,59.23
2024-02-28T06:32:47.519Z,59.83
2024-02-28T06:35:17.613Z,59.98
2024-02-28T06:37:50.954Z,59.53
2024-02-28T06:40:19.599Z,59.86
2024-02-28T06:42:50.115Z,59.82
2024-02-28T06:45:18.733Z,60.09
2024-02-28T06:47:47.411Z,59.34
2024-02-28T06:50:16.846Z,59.70
2024-02-28T06:52:45.595Z,59.69
2024-02-28T06:55:15.656Z,59.41
2024-02-28T06:57:44.993Z,59.13
2024-02-28T07:00:16.099Z,58.53
2024-02-28T07:02:45.812Z,58.76
2024-02-28T07:05:14.700Z,58.73
2024-02-28T07:07:47.228Z,58.10
2024-02-28T07:10:16.814Z,56.93
2024-02-28T07:12:45.606Z,57.35
2024-02-28T07:15:15.842Z,58.58
2024-02-28T07:17:44.867Z,58.27
2024-02-28T07:20:13.633Z,57.97
2024-02-28T07:22:44.198Z,57.04
2024-02-28T07:25:13.236Z,56.36
2024-02-28T07:27:41.877Z,55.69
2024-02-28T07:30:10.800Z,55.80
2024-02-28T07:32:44.416Z,55.63
2024-02-28T07:35:14.288Z,55.48
2024-02-28T07:37:43.494Z,54.85
2024-02-28T07:40:12.819Z,55.12
2024-02-28T07:42:42.964Z,56.44
2024-02-28T07:45:11.990Z,55.48
2024-02-28T07:47:41.454Z,55.25
2024-02-28T07:50:11.995Z,55.74
2024-02-28T07:52:40.982Z,54.32
2024-02-28T07:55:09.500Z,54.00
2024-02-28T07:57:38.347Z,54.77
2024-02-28T08:00:07.925Z,54.09
2024-02-28T08:02:41.355Z,53.64
2024-02-28T08:05:11.631Z,52.89
2024-02-28T08:07:40.107Z,52.23
2024-02-28T08:10:11.275Z,51.48
2024-02-28T08:12:40.701Z,50.90
2024-02-28T08:15:09.321Z,51.39
2024-02-28T08:17:38.213Z,50.27
2024-02-28T08:20:07.669Z,50.39
2024-02-28T08:22:38.111Z,51.47
2024-02-28T08:25:07.277Z,51.09
2024-02-28T08:27:36.589Z,50.91
2024-02-28T08:30:08.675Z,50.27
2024-02-28T08:32:39.598Z,49.55
2024-02-28T08:35:12.592Z,48.91
2024-02-28T08:37:43.778Z,48.83
2024-02-28T08:40:13.565Z,47.37
2024-02-28T08:42:42.900Z,47.12
2024-02-28T08:45:12.011Z,46.27
2024-02-28T08:47:43.477Z,45.84
2024-02-28T08:50:12.414Z,45.42
2024-02-28T08:52:44.237Z,44.91
2024-02-28T08:55:13.324Z,44.17
2024-02-28T08:57:42.447Z,44.36
2024-02-28T09:00:11.773Z,43.07
2024-02-28T09:02:49.527Z,42.15
2024-02-28T09:05:19.824Z,41.79
2024-02-28T09:07:52.922Z,41.58
2024-02-28T09:10:24.997Z,41.09
2024-02-28T09:12:54.167Z,40.63
2024-02-28T09:15:26.385Z,40.23
2024-02-28T09:17:55.918Z,40.49
2024-02-28T09:20:25.140Z,40.93
2024-02-28T09:22:55.108Z,40.11
2024-02-28T09:25:33.742Z,39.56
2024-02-28T09:28:03.004Z,39.99
2024-02-28T09:30:39.913Z,43.69
2024-02-28T09:33:14.981Z,43.69
2024-02-28T09:35:44.613Z,42.52
2024-02-28T09:38:14.711Z,41.83
2024-02-28T09:40:44.189Z,42.68
2024-02-28T09:43:17.751Z,41.26
2024-02-28T09:45:48.697Z,41.31
2024-02-28T09:48:19.082Z,40.37
2024-02-28T09:50:48.454Z,40.08
2024-02-28T09:53:18.608Z,41.25
2024-02-28T09:55:48.179Z,40.33
2024-02-28T09:58:18.290Z,40.62
2024-02-28T10:00:47.176Z,39.32
2024-02-28T10:03:24.705Z,40.31
2024-02-28T10:05:53.837Z,40.08
2024-02-28T10:08:24.450Z,38.95
2024-02-28T10:10:55.750Z,38.73
2024-02-28T10:13:24.684Z,38.01
2024-02-28T10:15:53.611Z,37.95
2024-02-28T10:18:26.358Z,38.73
2024-02-28T10:20:55.747Z,37.79
2024-02-28T10:23:27.110Z,39.22
2024-02-28T10:25:57.973Z,38.52
2024-02-28T10:28:28.261Z,37.93
2024-02-28T10:30:57.402Z,37.45
2024-02-28T10:33:30.872Z,37.59
2024-02-28T10:36:00.192Z,36.90
2024-02-28T10:38:34.376Z,37.75
2024-02-28T10:41:03.661Z,37.48
2024-02-28T10:43:35.984Z,38.61
2024-02-28T10:48:42.664Z,38.32
2024-02-28T10:51:16.008Z,37.91
2024-02-28T10:53:49.318Z,38.10
2024-02-28T10:56:21.449Z,37.83
2024-02-28T10:58:53.146Z,38.50
2024-02-28T11:01:22.866Z,37.39
2024-02-28T11:03:55.575Z,37.70
2024-02-28T11:06:25.190Z,37.82
2024-02-28T11:08:55.899Z,37.66
2024-02-28T11:11:25.423Z,38.22
2024-02-28T11:13:53.924Z,37.20
2024-02-28T11:16:28.527Z,37.11
2024-02-28T11:19:01.397Z,37.71
2024-02-28T11:21:30.557Z,36.64
2024-02-28T11:24:01.171Z,37.00
2024-02-28T11:26:30.138Z,36.71
2024-02-28T11:28:59.205Z,36.39
2024-02-28T11:31:27.758Z,36.88
2024-02-28T11:33:56.779Z,37.90
2024-02-28T11:36:28.252Z,36.78
2024-02-28T11:38:59.958Z,36.64
2024-02-28T11:41:30.882Z,36.16
2024-02-28T11:43:59.495Z,36.66
2024-02-28T11:46:34.939Z,37.20
2024-02-28T11:49:09.691Z,36.22
2024-02-28T11:51:39.258Z,35.92
2024-02-28T11:54:09.316Z,37.18
2024-02-28T11:56:40.623Z,37.17
2024-02-28T11:59:10.441Z,37.37
2024-02-28T12:01:41.132Z,37.81
2024-02-28T12:04:14.337Z,38.78
2024-02-28T12:06:46.664Z,38.96
2024-02-28T12:09:21.609Z,38.42
2024-02-28T12:11:57.979Z,39.06
2024-02-28T12:14:27.052Z,38.47
2024-02-28T12:16:56.013Z,39.50
2024-02-28T12:19:25.978Z,39.49
2024-02-28T12:21:55.523Z,40.62
2024-02-28T12:24:24.903Z,41.24
2024-02-28T12:26:53.524Z,40.87
2024-02-28T12:29:24.545Z,40.54
2024-02-28T12:31:53.399Z,39.73
2024-02-28T12:34:24.048Z,39.94
2024-02-28T12:36:53.038Z,40.48
2024-02-28T12:39:21.828Z,39.79
2024-02-28T12:41:50.702Z,38.92
2024-02-28T12:44:19.879Z,38.85
2024-02-28T12:46:50.185Z,38.86
2024-02-28T12:49:21.847Z,39.66
2024-02-28T12:51:52.894Z,38.95
2024-02-28T12:54:22.442Z,38.76
2024-02-28T12:56:52.047Z,38.85
2024-02-28T12:59:21.788Z,38.82
2024-02-28T13:01:52.892Z,38.89
2024-02-28T13:04:29.498Z,38.60
2024-02-28T13:06:58.256Z,39.27
2024-02-28T13:09:27.640Z,39.23
2024-02-28T13:11:56.183Z,39.50
2024-02-28T13:14:24.779Z,39.09
2024-02-28T13:16:55.949Z,38.54
2024-02-28T13:19:24.633Z,38.51
2024-02-28T13:21:53.646Z,38.01
2024-02-28T13:24:22.896Z,37.95
2024-02-28T13:26:51.480Z,37.57
2024-02-28T13:29:20.565Z,37.76
2024-02-28T13:31:49.458Z,38.34
2024-02-28T13:34:20.272Z,38.27
2024-02-28T13:36:49.634Z,38.38
2024-02-28T13:39:18.367Z,38.28
2024-02-28T13:41:46.972Z,39.14
2024-02-28T13:44:16.067Z,37.54
2024-02-28T13:46:44.537Z,37.86
2024-02-28T13:49:14.785Z,37.62
2024-02-28T13:51:45.531Z,37.92
2024-02-28T13:54:14.368Z,38.10
2024-02-28T13:56:43.439Z,37.77
2024-02-28T13:59:15.677Z,38.36
2024-02-28T14:01:44.706Z,37.96
2024-02-28T14:04:14.575Z,37.85
2024-02-28T14:06:43.705Z,37.48
2024-02-28T14:09:13.797Z,37.02
2024-02-28T14:11:42.613Z,37.33
2024-02-28T14:14:13.095Z,37.29
2024-02-28T14:16:41.965Z,37.55
2024-02-28T14:19:11.163Z,37.74
2024-02-28T14:21:39.611Z,37.97
2024-02-28T14:24:11.524Z,36.84
2024-02-28T14:26:41.918Z,37.52
2024-02-28T14:29:10.862Z,37.58
2024-02-28T14:31:39.391Z,38.65
2024-02-28T14:34:08.196Z,38.34
2024-02-28T14:36:37.282Z,38.21
2024-02-28T14:39:05.845Z,38.02
2024-02-28T14:41:35.882Z,38.29
2024-02-28T14:44:06.952Z,38.23
2024-02-28T14:46:35.454Z,39.10
2024-02-28T14:49:04.191Z,39.35
2024-02-28T14:51:34.282Z,38.95
2024-02-28T14:54:03.456Z,39.67
2024-02-28T14:56:32.465Z,40.47
2024-02-28T14:59:01.093Z,39.68
2024-02-28T15:01:32.348Z,39.65
2024-02-28T15:04:02.493Z,40.08
2024-02-28T15:06:31.096Z,40.77
2024-02-28T15:09:00.540Z,40.65
2024-02-28T15:11:29.618Z,40.50
2024-02-28T15:14:00.793Z,40.64
2024-02-28T15:16:29.684Z,41.36
2024-02-28T15:19:01.153Z,41.35
2024-02-28T15:21:29.875Z,41.64
2024-02-28T15:23:58.566Z,41.76
2024-02-28T15:26:31.901Z,42.36
2024-02-28T15:29:08.666Z,42.06
2024-02-28T15:31:40.610Z,42.24
2024-02-28T15:34:11.652Z,42.33
2024-02-28T15:36:40.719Z,41.67
2024-02-28T15:39:09.521Z,42.25
2024-02-28T15:41:40.859Z,42.34
2024-02-28T15:44:10.524Z,41.98
2024-02-28T15:46:39.599Z,42.27
2024-02-28T15:49:10.134Z,42.27
2024-02-28T15:51:43.791Z,42.67
2024-02-28T15:54:12.683Z,43.05
2024-02-28T15:56:41.449Z,43.06
2024-02-28T15:59:13.444Z,43.13
2024-02-28T16:01:43.082Z,43.82
2024-02-28T16:04:12.347Z,44.76
2024-02-28T16:06:43.120Z,49.89
2024-02-28T16:09:16.064Z,49.96
2024-02-28T16:11:45.715Z,47.78
2024-02-28T16:14:14.956Z,46.82
2024-02-28T16:16:43.345Z,47.89
2024-02-28T16:19:18.331Z,47.35
2024-02-28T16:21:53.376Z,46.62
2024-02-28T16:24:22.825Z,46.49
2024-02-28T16:26:52.798Z,45.12
2024-02-28T16:29:21.817Z,46.01
2024-02-28T16:31:51.646Z,46.07
2024-02-28T16:34:21.160Z,46.03
2024-02-28T16:36:53.122Z,46.04
2024-02-28T16:39:23.634Z,46.27
2024-02-28T16:41:52.006Z,46.10
2024-02-28T16:44:20.880Z,46.91
2024-02-28T16:46:50.398Z,46.91
2024-02-28T16:49:20.192Z,46.88
2024-02-28T16:51:48.918Z,47.73
2024-02-28T16:54:20.753Z,47.50
2024-02-28T16:56:51.843Z,48.62
2024-02-28T16:59:21.240Z,48.11
2024-02-28T17:01:51.159Z,48.63
2024-02-28T17:04:20.162Z,48.64
2024-02-28T17:09:26.006Z,49.36
2024-02-28T17:11:56.569Z,49.54
2024-02-28T17:14:25.413Z,50.20
2024-02-28T17:16:54.517Z,50.34
2024-02-28T17:19:23.143Z,50.70
2024-02-28T17:21:51.970Z,51.11
2024-02-28T17:24:24.630Z,51.10
2024-02-28T17:26:54.676Z,51.72
2024-02-28T17:29:24.738Z,51.63
2024-02-28T17:31:54.790Z,51.80
2024-02-28T17:34:24.037Z,51.92
2024-02-28T17:36:53.343Z,51.98
2024-02-28T17:39:26.875Z,52.08
2024-02-28T17:41:55.834Z,52.15
2024-02-28T17:44:25.872Z,52.70
2024-02-28T17:46:54.758Z,52.79
2024-02-28T17:49:24.925Z,53.29
2024-02-28T17:51:53.450Z,53.18
2024-02-28T17:54:22.061Z,53.26
2024-02-28T17:56:51.044Z,53.21
2024-02-28T17:59:19.555Z,53.73
2024-02-28T18:01:49.563Z,54.34
2024-02-28T18:04:18.843Z,54.34
2024-02-28T18:06:48.840Z,54.88
2024-02-28T18:09:19.335Z,54.04
2024-02-28T18:11:47.880Z,54.17
2024-02-28T18:14:16.902Z,54.08
2024-02-28T18:16:45.910Z,54.97
2024-02-28T18:19:15.716Z,55.66
2024-02-28T18:21:44.230Z,54.60
2024-02-28T18:24:14.046Z,55.11
2024-02-28T18:26:46.297Z,56.86
2024-02-28T18:29:15.530Z,57.25
2024-02-28T18:31:44.260Z,58.48
2024-02-28T18:34:13.573Z,57.14
2024-02-28T18:36:43.848Z,57.41
2024-02-28T18:39:13.318Z,57.84
2024-02-28T18:41:42.124Z,58.33
2024-02-28T18:44:10.812Z,58.35
2024-02-28T18:46:39.554Z,57.72
2024-02-28T18:49:08.793Z,57.33
2024-02-28T18:51:37.407Z,58.11
2024-02-28T18:54:07.861Z,57.80
2024-02-28T18:56:40.557Z,57.29
2024-02-28T18:59:09.710Z,57.58
2024-02-28T19:01:38.714Z,57.00
2024-02-28T19:04:07.980Z,57.18
2024-02-28T19:06:40.678Z,57.38
2024-02-28T19:09:10.768Z,56.68
2024-02-28T19:11:40.069Z,56.68
2024-02-28T19:14:09.100Z,57.03
2024-02-28T19:16:38.349Z,57.75
2024-02-28T19:19:07.424Z,57.52
2024-02-28T19:21:36.437Z,57.85
2024-02-28T19:24:05.394Z,57.38
2024-02-28T19:26:37.942Z,56.80
2024-02-28T19:29:12.853Z,57.64
2024-02-28T19:31:41.936Z,57.53
2024-02-28T19:34:11.666Z,57.92
2024-02-28T19:36:43.934Z,57.89
2024-02-28T19:39:12.815Z,57.58
2024-02-28T19:41:42.864Z,58.09
2024-02-28T19:44:15.534Z,58.40
2024-02-28T19:46:46.544Z,57.62
2024-02-28T19:49:16.428Z,58.06
2024-02-28T19:51:46.341Z,58.07
2024-02-28T19:54:15.169Z,57.99
2024-02-28T19:56:50.307Z,58.03
2024-02-28T19:59:19.542Z,58.43
2024-02-28T20:01:49.409Z,57.86
2024-02-28T20:04:18.576Z,58.30
2024-02-28T20:06:47.252Z,59.78
2024-02-28T20:09:20.489Z,59.32
2024-02-28T20:11:50.217Z,59.48
2024-02-28T20:14:23.173Z,59.09
2024-02-28T20:16:53.506Z,58.88
2024-02-28T20:19:22.192Z,59.39
2024-02-28T20:21:51.336Z,59.47
2024-02-28T20:24:20.454Z,59.05
2024-02-28T20:26:50.585Z,58.54
2024-02-28T20:29:19.178Z,58.51
2024-02-28T20:31:48.532Z,58.79
2024-02-28T20:34:17.810Z,58.58
2024-02-28T20:36:47.919Z,59.38
2024-02-28T20:39:16.998Z,58.88
2024-02-28T20:41:45.836Z,59.24
2024-02-28T20:44:15.954Z,59.88
2024-02-28T20:46:45.188Z,60.88
2024-02-28T20:49:13.935Z,59.72
2024-02-28T20:51:42.720Z,60.00
2024-02-28T20:54:11.769Z,60.51
2024-02-28T20:56:42.286Z,60.90
2024-02-28T20:59:11.406Z,60.13
2024-02-28T21:01:41.862Z,60.36
2024-02-28T21:04:14.678Z,61.97
2024-02-28T21:06:47.905Z,61.81
2024-02-28T21:09:16.914Z,61.85
2024-02-28T21:11:45.780Z,62.22
2024-02-28T21:14:14.892Z,61.93
2024-02-28T21:16:45.240Z,60.88
2024-02-28T21:19:13.764Z,60.69
2024-02-28T21:21:42.229Z,61.20
2024-02-28T21:24:13.237Z,60.92
2024-02-28T21:26:42.765Z,60.27
2024-02-28T21:29:14.196Z,60.53
2024-02-28T21:31:43.079Z,61.08
2024-02-28T21:34:13.469Z,60.84
2024-02-28T21:36:42.304Z,60.76
2024-02-28T21:39:11.564Z,60.55
2024-02-28T21:41:45.378Z,61.33
2024-02-28T21:44:14.259Z,61.40
2024-02-28T21:46:43.295Z,61.67
2024-02-28T21:49:14.011Z,61.65
2024-02-28T21:51:43.755Z,61.39
2024-02-28T21:54:12.702Z,61.45
2024-02-28T21:56:41.916Z,60.87
2024-02-28T21:59:10.646Z,60.99
2024-02-28T22:01:39.977Z,60.56
2024-02-28T22:04:09.940Z,60.91
2024-02-28T22:06:40.222Z,61.23
2024-02-28T22:09:09.178Z,61.23
2024-02-28T22:11:38.318Z,60.50
2024-02-28T22:14:07.362Z,61.08
2024-02-28T22:16:36.253Z,61.09
2024-02-28T22:19:05.349Z,60.57
2024-02-28T22:21:34.698Z,61.18
2024-02-28T22:24:05.824Z,60.13
2024-02-28T22:26:34.613Z,60.88
2024-02-28T22:29:03.776Z,60.77
2024-02-28T22:31:43.502Z,60.24
2024-02-28T22:34:12.450Z,60.88
2024-02-28T22:36:41.293Z,61.05
2024-02-28T22:39:11.341Z,60.88
2024-02-28T22:41:40.448Z,60.77
2024-02-28T22:44:09.018Z,61.03
2024-02-28T22:46:41.714Z,61.45
2024-02-28T22:49:10.701Z,61.31
2024-02-28T22:51:40.723Z,61.38
2024-02-28T22:54:15.880Z,63.15
2024-02-28T22:56:45.362Z,63.11
2024-02-28T22:59:14.043Z,63.01
2024-02-28T23:01:43.151Z,63.00
2024-02-28T23:04:12.368Z,64.77
2024-02-28T23:06:42.083Z,63.45
2024-02-28T23:09:13.330Z,63.15
2024-02-28T23:11:43.324Z,62.76
2024-02-28T23:16:42.306Z,62.58
2024-02-28T23:19:12.259Z,63.64
2024-02-28T23:21:41.672Z,64.66
2024-02-28T23:24:12.150Z,64.57
2024-02-28T23:26:40.979Z,64.29
2024-02-28T23:29:09.588Z,63.83
2024-02-28T23:31:38.660Z,63.49
2024-02-28T23:34:08.233Z,63.00
2024-02-28T23:36:36.884Z,62.94
2024-02-28T23:39:05.618Z,62.25
2024-02-28T23:41:35.984Z,62.82
2024-02-28T23:44:04.809Z,62.34
2024-02-28T23:46:34.556Z,62.06
2024-02-28T23:49:03.455Z,62.21
2024-02-28T23:51:32.188Z,61.81
2024-02-28T23:54:00.983Z,62.05
2024-02-28T23:56:32.332Z,61.75
2024-02-28T23:59:02.410Z,61.53
